EDDS/STR METAR and TAF weather

Enter ICAO airport designator
Station Type Date Time Source
EDDS METAR 2020/07/07 10:20 UTC NOAA

EDDS 071020Z VRB03KT CAVOK 20/07 Q1021 NOSIG


Station Type Date Time Source
EDDS Decoded METAR 2020/07/07 10:20 UTC NOAA

Stuttgart-Echterdingen, Germany (EDDS) 48-41N 009-13E 391M
Jul 07, 2020 - 06:20 AM EDT / 2020.07.07 1020 UTC
Wind: Variable at 3 MPH (3 KT):0
Visibility: greater than 7 mile(s):0
Temperature: 68 F (20 C)
Dew Point: 44 F (7 C)
Relative Humidity: 42%
Pressure (altimeter): 30.15 in. Hg (1021 hPa)
ob: EDDS 071020Z VRB03KT CAVOK 20/07 Q1021 NOSIG
cycle: 10

Station Type Date Time Source
EDDS TAF 2020/07/07 06:27 UTC NOAA

TAF EDDS 070500Z 0706/0806 VRB03KT CAVOK
BECMG 0709/0711 33005KT
BECMG 0720/0722 VRB03KT

Example: see airport list